sensor_id;sensor_type;location;lat;lon;timestamp;P1;durP1;ratioP1;P2;durP2;ratioP2
2123;SDS011;1068;52.460;13.528;2023-06-14T00:01:58;2.63;;;2.43;;
2123;SDS011;1068;52.460;13.528;2023-06-14T00:04:25;2.27;;;2.10;;
2123;SDS011;1068;52.460;13.528;2023-06-14T00:06:52;3.73;;;2.50;;
2123;SDS011;1068;52.460;13.528;2023-06-14T00:09:21;2.93;;;2.73;;
2123;SDS011;1068;52.460;13.528;2023-06-14T00:11:48;2.30;;;2.20;;
2123;SDS011;1068;52.460;13.528;2023-06-14T00:14:16;2.40;;;2.00;;
2123;SDS011;1068;52.460;13.528;2023-06-14T00:16:43;5.43;;;3.17;;
2123;SDS011;1068;52.460;13.528;2023-06-14T00:19:10;2.73;;;2.53;;
2123;SDS011;1068;52.460;13.528;2023-06-14T00:21:37;4.00;;;2.63;;
2123;SDS011;1068;52.460;13.528;2023-06-14T00:24:04;3.30;;;3.00;;
2123;SDS011;1068;52.460;13.528;2023-06-14T00:26:31;2.70;;;2.50;;
2123;SDS011;1068;52.460;13.528;2023-06-14T00:28:58;3.63;;;2.33;;
2123;SDS011;1068;52.460;13.528;2023-06-14T00:31:26;2.73;;;2.53;;
2123;SDS011;1068;52.460;13.528;2023-06-14T00:33:53;2.87;;;2.67;;
2123;SDS011;1068;52.460;13.528;2023-06-14T00:36:20;2.60;;;2.50;;
2123;SDS011;1068;52.460;13.528;2023-06-14T00:38:47;3.00;;;2.70;;
2123;SDS011;1068;52.460;13.528;2023-06-14T00:41:14;5.43;;;2.40;;
2123;SDS011;1068;52.460;13.528;2023-06-14T00:43:41;2.73;;;2.10;;
2123;SDS011;1068;52.460;13.528;2023-06-14T00:46:08;3.97;;;2.90;;
2123;SDS011;1068;52.460;13.528;2023-06-14T00:48:36;2.67;;;2.03;;
2123;SDS011;1068;52.460;13.528;2023-06-14T00:51:03;3.10;;;2.90;;
2123;SDS011;1068;52.460;13.528;2023-06-14T00:53:30;6.50;;;2.70;;
2123;SDS011;1068;52.460;13.528;2023-06-14T00:56:00;3.90;;;3.17;;
2123;SDS011;1068;52.460;13.528;2023-06-14T00:58:27;4.27;;;2.90;;
2123;SDS011;1068;52.460;13.528;2023-06-14T01:00:54;5.00;;;3.17;;
2123;SDS011;1068;52.460;13.528;2023-06-14T01:03:22;3.50;;;2.63;;
2123;SDS011;1068;52.460;13.528;2023-06-14T01:05:53;3.33;;;2.90;;
2123;SDS011;1068;52.460;13.528;2023-06-14T01:08:28;4.40;;;3.60;;
2123;SDS011;1068;52.460;13.528;2023-06-14T01:11:00;4.07;;;3.57;;
2123;SDS011;1068;52.460;13.528;2023-06-14T01:13:32;4.80;;;3.60;;
2123;SDS011;1068;52.460;13.528;2023-06-14T01:15:59;3.70;;;3.40;;
2123;SDS011;1068;52.460;13.528;2023-06-14T01:18:27;3.90;;;3.10;;
2123;SDS011;1068;52.460;13.528;2023-06-14T01:20:56;5.97;;;3.40;;
2123;SDS011;1068;52.460;13.528;2023-06-14T01:23:24;3.30;;;2.73;;
2123;SDS011;1068;52.460;13.528;2023-06-14T01:25:57;3.60;;;3.30;;
2123;SDS011;1068;52.460;13.528;2023-06-14T01:28:25;3.13;;;2.93;;
2123;SDS011;1068;52.460;13.528;2023-06-14T01:30:56;4.70;;;3.23;;
2123;SDS011;1068;52.460;13.528;2023-06-14T01:33:26;4.37;;;3.90;;
2123;SDS011;1068;52.460;13.528;2023-06-14T01:35:54;4.33;;;3.93;;
2123;SDS011;1068;52.460;13.528;2023-06-14T01:38:22;3.90;;;3.57;;
2123;SDS011;1068;52.460;13.528;2023-06-14T01:40:51;5.37;;;3.37;;
2123;SDS011;1068;52.460;13.528;2023-06-14T01:43:19;4.10;;;3.70;;
2123;SDS011;1068;52.460;13.528;2023-06-14T01:45:47;3.90;;;3.60;;
2123;SDS011;1068;52.460;13.528;2023-06-14T01:48:14;3.80;;;3.43;;
2123;SDS011;1068;52.460;13.528;2023-06-14T01:50:41;4.20;;;3.80;;
2123;SDS011;1068;52.460;13.528;2023-06-14T01:53:09;7.00;;;3.53;;
2123;SDS011;1068;52.460;13.528;2023-06-14T01:55:36;4.60;;;4.20;;
2123;SDS011;1068;52.460;13.528;2023-06-14T01:58:09;5.70;;;3.90;;
2123;SDS011;1068;52.460;13.528;2023-06-14T02:00:36;4.77;;;3.70;;
2123;SDS011;1068;52.460;13.528;2023-06-14T02:03:03;4.10;;;3.80;;
2123;SDS011;1068;52.460;13.528;2023-06-14T02:05:30;4.77;;;4.37;;
2123;SDS011;1068;52.460;13.528;2023-06-14T02:07:57;4.80;;;4.40;;
2123;SDS011;1068;52.460;13.528;2023-06-14T02:10:24;4.70;;;4.30;;
2123;SDS011;1068;52.460;13.528;2023-06-14T02:12:51;8.30;;;5.07;;
2123;SDS011;1068;52.460;13.528;2023-06-14T02:15:19;7.83;;;4.80;;
2123;SDS011;1068;52.460;13.528;2023-06-14T02:17:47;5.17;;;4.77;;
2123;SDS011;1068;52.460;13.528;2023-06-14T02:20:14;4.73;;;4.33;;
2123;SDS011;1068;52.460;13.528;2023-06-14T02:22:41;6.60;;;4.40;;
2123;SDS011;1068;52.460;13.528;2023-06-14T02:25:08;5.90;;;5.40;;
2123;SDS011;1068;52.460;13.528;2023-06-14T02:27:35;4.60;;;4.03;;
2123;SDS011;1068;52.460;13.528;2023-06-14T02:30:02;5.70;;;4.37;;
2123;SDS011;1068;52.460;13.528;2023-06-14T02:32:31;5.10;;;4.70;;
2123;SDS011;1068;52.460;13.528;2023-06-14T02:34:59;4.43;;;4.13;;
2123;SDS011;1068;52.460;13.528;2023-06-14T02:37:26;5.40;;;4.47;;
2123;SDS011;1068;52.460;13.528;2023-06-14T02:39:52;4.90;;;4.40;;
2123;SDS011;1068;52.460;13.528;2023-06-14T02:42:20;5.53;;;4.50;;
2123;SDS011;1068;52.460;13.528;2023-06-14T02:44:46;4.87;;;4.53;;
2123;SDS011;1068;52.460;13.528;2023-06-14T02:47:16;5.10;;;4.63;;
2123;SDS011;1068;52.460;13.528;2023-06-14T02:49:44;7.30;;;5.27;;
2123;SDS011;1068;52.460;13.528;2023-06-14T02:52:11;4.77;;;4.40;;
2123;SDS011;1068;52.460;13.528;2023-06-14T02:54:38;7.93;;;4.93;;
2123;SDS011;1068;52.460;13.528;2023-06-14T02:57:06;5.47;;;4.93;;
2123;SDS011;1068;52.460;13.528;2023-06-14T02:59:33;4.73;;;4.33;;
2123;SDS011;1068;52.460;13.528;2023-06-14T03:02:00;6.00;;;5.50;;
2123;SDS011;1068;52.460;13.528;2023-06-14T03:04:28;8.23;;;4.77;;
2123;SDS011;1068;52.460;13.528;2023-06-14T03:07:01;4.67;;;4.23;;
2123;SDS011;1068;52.460;13.528;2023-06-14T03:09:33;5.37;;;4.30;;
2123;SDS011;1068;52.460;13.528;2023-06-14T03:12:00;8.00;;;5.20;;
2123;SDS011;1068;52.460;13.528;2023-06-14T03:14:27;4.43;;;4.07;;
2123;SDS011;1068;52.460;13.528;2023-06-14T03:16:55;8.63;;;4.40;;
2123;SDS011;1068;52.460;13.528;2023-06-14T03:19:22;4.33;;;4.00;;
2123;SDS011;1068;52.460;13.528;2023-06-14T03:21:49;5.63;;;5.10;;
2123;SDS011;1068;52.460;13.528;2023-06-14T03:24:17;4.93;;;4.53;;
2123;SDS011;1068;52.460;13.528;2023-06-14T03:26:44;4.80;;;4.50;;
2123;SDS011;1068;52.460;13.528;2023-06-14T03:29:11;6.43;;;4.90;;
2123;SDS011;1068;52.460;13.528;2023-06-14T03:31:41;4.57;;;4.27;;
2123;SDS011;1068;52.460;13.528;2023-06-14T03:34:22;5.10;;;4.70;;
2123;SDS011;1068;52.460;13.528;2023-06-14T03:36:49;6.60;;;4.70;;
2123;SDS011;1068;52.460;13.528;2023-06-14T03:39:17;5.30;;;4.50;;
2123;SDS011;1068;52.460;13.528;2023-06-14T03:41:44;7.83;;;4.80;;
2123;SDS011;1068;52.460;13.528;2023-06-14T03:44:11;4.80;;;4.00;;
2123;SDS011;1068;52.460;13.528;2023-06-14T03:46:38;10.50;;;5.80;;
2123;SDS011;1068;52.460;13.528;2023-06-14T03:49:05;5.33;;;4.90;;
2123;SDS011;1068;52.460;13.528;2023-06-14T03:51:32;5.50;;;4.73;;
2123;SDS011;1068;52.460;13.528;2023-06-14T03:53:59;4.30;;;4.00;;
2123;SDS011;1068;52.460;13.528;2023-06-14T03:56:28;8.50;;;5.40;;
2123;SDS011;1068;52.460;13.528;2023-06-14T03:58:54;7.07;;;5.60;;
2123;SDS011;1068;52.460;13.528;2023-06-14T04:01:21;10.00;;;5.63;;
2123;SDS011;1068;52.460;13.528;2023-06-14T04:03:54;10.53;;;5.50;;
2123;SDS011;1068;52.460;13.528;2023-06-14T04:06:21;5.07;;;4.67;;
2123;SDS011;1068;52.460;13.528;2023-06-14T04:08:49;7.53;;;5.03;;
2123;SDS011;1068;52.460;13.528;2023-06-14T04:11:16;4.70;;;4.30;;
2123;SDS011;1068;52.460;13.528;2023-06-14T04:13:45;6.47;;;5.80;;
2123;SDS011;1068;52.460;13.528;2023-06-14T04:16:13;6.80;;;5.30;;
2123;SDS011;1068;52.460;13.528;2023-06-14T04:18:39;4.90;;;4.50;;
2123;SDS011;1068;52.460;13.528;2023-06-14T04:21:06;5.50;;;4.83;;
2123;SDS011;1068;52.460;13.528;2023-06-14T04:23:33;5.33;;;4.63;;
2123;SDS011;1068;52.460;13.528;2023-06-14T04:26:00;5.00;;;4.50;;
2123;SDS011;1068;52.460;13.528;2023-06-14T04:28:27;6.63;;;5.30;;
2123;SDS011;1068;52.460;13.528;2023-06-14T04:30:57;5.30;;;4.90;;
2123;SDS011;1068;52.460;13.528;2023-06-14T04:33:26;6.67;;;5.77;;
2123;SDS011;1068;52.460;13.528;2023-06-14T04:35:53;5.70;;;5.10;;
2123;SDS011;1068;52.460;13.528;2023-06-14T04:38:21;8.73;;;5.83;;
2123;SDS011;1068;52.460;13.528;2023-06-14T04:40:50;6.73;;;5.37;;
2123;SDS011;1068;52.460;13.528;2023-06-14T04:43:17;6.83;;;5.10;;
2123;SDS011;1068;52.460;13.528;2023-06-14T04:45:50;5.60;;;5.20;;
2123;SDS011;1068;52.460;13.528;2023-06-14T04:48:20;6.30;;;5.70;;
2123;SDS011;1068;52.460;13.528;2023-06-14T04:50:47;5.90;;;5.37;;
2123;SDS011;1068;52.460;13.528;2023-06-14T04:53:17;5.50;;;5.10;;
2123;SDS011;1068;52.460;13.528;2023-06-14T04:55:46;5.60;;;5.10;;
2123;SDS011;1068;52.460;13.528;2023-06-14T04:58:13;6.33;;;5.77;;
2123;SDS011;1068;52.460;13.528;2023-06-14T05:00:40;5.90;;;5.40;;
2123;SDS011;1068;52.460;13.528;2023-06-14T05:03:08;6.03;;;5.10;;
2123;SDS011;1068;52.460;13.528;2023-06-14T05:05:39;6.17;;;5.63;;
2123;SDS011;1068;52.460;13.528;2023-06-14T05:08:06;6.00;;;5.50;;
2123;SDS011;1068;52.460;13.528;2023-06-14T05:10:34;5.43;;;5.03;;
2123;SDS011;1068;52.460;13.528;2023-06-14T05:13:01;5.70;;;5.30;;
2123;SDS011;1068;52.460;13.528;2023-06-14T05:15:28;6.60;;;5.30;;
2123;SDS011;1068;52.460;13.528;2023-06-14T05:17:55;8.07;;;7.07;;
2123;SDS011;1068;52.460;13.528;2023-06-14T05:20:22;5.70;;;5.20;;
2123;SDS011;1068;52.460;13.528;2023-06-14T05:22:50;9.47;;;5.63;;
2123;SDS011;1068;52.460;13.528;2023-06-14T05:25:18;6.00;;;5.50;;
2123;SDS011;1068;52.460;13.528;2023-06-14T05:27:45;7.63;;;6.23;;
2123;SDS011;1068;52.460;13.528;2023-06-14T05:30:12;6.93;;;6.23;;
2123;SDS011;1068;52.460;13.528;2023-06-14T05:32:39;9.90;;;6.33;;
2123;SDS011;1068;52.460;13.528;2023-06-14T05:35:06;9.50;;;6.03;;
2123;SDS011;1068;52.460;13.528;2023-06-14T05:37:34;6.30;;;5.70;;
2123;SDS011;1068;52.460;13.528;2023-06-14T05:40:02;7.73;;;6.67;;
2123;SDS011;1068;52.460;13.528;2023-06-14T05:42:31;7.93;;;5.60;;
2123;SDS011;1068;52.460;13.528;2023-06-14T05:44:57;7.67;;;6.13;;
2123;SDS011;1068;52.460;13.528;2023-06-14T05:47:24;6.93;;;6.20;;
2123;SDS011;1068;52.460;13.528;2023-06-14T05:49:52;9.00;;;5.47;;
2123;SDS011;1068;52.460;13.528;2023-06-14T05:52:20;7.83;;;5.70;;
2123;SDS011;1068;52.460;13.528;2023-06-14T05:54:47;17.30;;;5.70;;
2123;SDS011;1068;52.460;13.528;2023-06-14T05:57:15;7.10;;;6.43;;
2123;SDS011;1068;52.460;13.528;2023-06-14T05:59:42;8.47;;;6.20;;
2123;SDS011;1068;52.460;13.528;2023-06-14T06:02:09;6.20;;;5.70;;
2123;SDS011;1068;52.460;13.528;2023-06-14T06:04:36;5.80;;;5.30;;
2123;SDS011;1068;52.460;13.528;2023-06-14T06:07:03;12.57;;;6.53;;
2123;SDS011;1068;52.460;13.528;2023-06-14T06:09:30;9.87;;;6.00;;
2123;SDS011;1068;52.460;13.528;2023-06-14T06:11:57;6.30;;;5.60;;
2123;SDS011;1068;52.460;13.528;2023-06-14T06:14:25;6.17;;;5.40;;
2123;SDS011;1068;52.460;13.528;2023-06-14T06:16:52;9.53;;;6.67;;
2123;SDS011;1068;52.460;13.528;2023-06-14T06:19:19;9.90;;;5.30;;
2123;SDS011;1068;52.460;13.528;2023-06-14T06:21:46;16.10;;;6.10;;
2123;SDS011;1068;52.460;13.528;2023-06-14T06:24:13;7.17;;;5.83;;
2123;SDS011;1068;52.460;13.528;2023-06-14T06:26:40;5.73;;;5.23;;
2123;SDS011;1068;52.460;13.528;2023-06-14T06:29:07;5.93;;;5.20;;
2123;SDS011;1068;52.460;13.528;2023-06-14T06:31:35;7.27;;;5.43;;
2123;SDS011;1068;52.460;13.528;2023-06-14T06:34:02;6.13;;;5.20;;
2123;SDS011;1068;52.460;13.528;2023-06-14T06:36:28;11.50;;;6.17;;
2123;SDS011;1068;52.460;13.528;2023-06-14T06:38:55;6.30;;;5.57;;
2123;SDS011;1068;52.460;13.528;2023-06-14T06:41:22;5.53;;;5.00;;
2123;SDS011;1068;52.460;13.528;2023-06-14T06:43:49;6.00;;;5.47;;
2123;SDS011;1068;52.460;13.528;2023-06-14T06:46:16;5.17;;;4.77;;
2123;SDS011;1068;52.460;13.528;2023-06-14T06:48:45;5.17;;;4.73;;
2123;SDS011;1068;52.460;13.528;2023-06-14T06:51:12;9.80;;;5.70;;
2123;SDS011;1068;52.460;13.528;2023-06-14T06:53:41;5.73;;;5.23;;
2123;SDS011;1068;52.460;13.528;2023-06-14T06:56:09;9.53;;;6.33;;
2123;SDS011;1068;52.460;13.528;2023-06-14T06:58:36;7.57;;;5.53;;
2123;SDS011;1068;52.460;13.528;2023-06-14T07:01:03;9.30;;;4.90;;
2123;SDS011;1068;52.460;13.528;2023-06-14T07:03:29;9.90;;;5.50;;
2123;SDS011;1068;52.460;13.528;2023-06-14T07:05:58;6.20;;;5.70;;
2123;SDS011;1068;52.460;13.528;2023-06-14T07:08:25;10.83;;;5.10;;
2123;SDS011;1068;52.460;13.528;2023-06-14T07:10:52;6.67;;;5.40;;
2123;SDS011;1068;52.460;13.528;2023-06-14T07:13:19;8.10;;;4.80;;
2123;SDS011;1068;52.460;13.528;2023-06-14T07:15:46;6.23;;;5.63;;
2123;SDS011;1068;52.460;13.528;2023-06-14T07:18:13;6.80;;;5.13;;
2123;SDS011;1068;52.460;13.528;2023-06-14T07:20:40;6.30;;;5.70;;
2123;SDS011;1068;52.460;13.528;2023-06-14T07:23:09;8.97;;;5.77;;
2123;SDS011;1068;52.460;13.528;2023-06-14T07:25:36;5.13;;;4.47;;
2123;SDS011;1068;52.460;13.528;2023-06-14T07:28:03;6.43;;;5.53;;
2123;SDS011;1068;52.460;13.528;2023-06-14T07:30:30;5.00;;;4.60;;
2123;SDS011;1068;52.460;13.528;2023-06-14T07:32:57;6.63;;;5.37;;
2123;SDS011;1068;52.460;13.528;2023-06-14T07:35:25;5.70;;;5.20;;
2123;SDS011;1068;52.460;13.528;2023-06-14T07:37:52;7.70;;;4.80;;
2123;SDS011;1068;52.460;13.528;2023-06-14T07:40:20;6.87;;;4.83;;
2123;SDS011;1068;52.460;13.528;2023-06-14T07:42:47;5.50;;;5.00;;
2123;SDS011;1068;52.460;13.528;2023-06-14T07:45:15;5.13;;;4.73;;
2123;SDS011;1068;52.460;13.528;2023-06-14T07:47:42;5.20;;;4.70;;
2123;SDS011;1068;52.460;13.528;2023-06-14T07:50:09;5.03;;;4.50;;
2123;SDS011;1068;52.460;13.528;2023-06-14T07:52:36;5.30;;;4.87;;
2123;SDS011;1068;52.460;13.528;2023-06-14T07:55:03;5.80;;;5.30;;
2123;SDS011;1068;52.460;13.528;2023-06-14T07:57:32;5.57;;;5.00;;
2123;SDS011;1068;52.460;13.528;2023-06-14T08:00:00;5.43;;;4.20;;
2123;SDS011;1068;52.460;13.528;2023-06-14T08:02:27;5.77;;;5.00;;
2123;SDS011;1068;52.460;13.528;2023-06-14T08:04:54;5.30;;;4.80;;
2123;SDS011;1068;52.460;13.528;2023-06-14T08:07:20;5.70;;;4.90;;
2123;SDS011;1068;52.460;13.528;2023-06-14T08:09:47;5.17;;;4.70;;
2123;SDS011;1068;52.460;13.528;2023-06-14T08:12:14;4.93;;;4.53;;
2123;SDS011;1068;52.460;13.528;2023-06-14T08:14:43;6.87;;;4.73;;
2123;SDS011;1068;52.460;13.528;2023-06-14T08:17:10;4.00;;;3.80;;
2123;SDS011;1068;52.460;13.528;2023-06-14T08:19:37;8.30;;;3.90;;
2123;SDS011;1068;52.460;13.528;2023-06-14T08:22:04;4.30;;;4.00;;
2123;SDS011;1068;52.460;13.528;2023-06-14T08:24:31;6.00;;;4.30;;
2123;SDS011;1068;52.460;13.528;2023-06-14T08:26:58;4.23;;;3.93;;
2123;SDS011;1068;52.460;13.528;2023-06-14T08:29:26;6.80;;;4.30;;
2123;SDS011;1068;52.460;13.528;2023-06-14T08:31:57;6.17;;;4.13;;
2123;SDS011;1068;52.460;13.528;2023-06-14T08:34:24;6.53;;;4.50;;
2123;SDS011;1068;52.460;13.528;2023-06-14T08:36:51;6.00;;;4.13;;
2123;SDS011;1068;52.460;13.528;2023-06-14T08:39:18;6.13;;;3.97;;
2123;SDS011;1068;52.460;13.528;2023-06-14T08:41:45;4.10;;;3.73;;
2123;SDS011;1068;52.460;13.528;2023-06-14T08:44:13;3.67;;;3.40;;
2123;SDS011;1068;52.460;13.528;2023-06-14T08:46:40;4.37;;;3.70;;
2123;SDS011;1068;52.460;13.528;2023-06-14T08:49:09;3.50;;;3.20;;
2123;SDS011;1068;52.460;13.528;2023-06-14T08:51:38;7.63;;;3.77;;
2123;SDS011;1068;52.460;13.528;2023-06-14T08:54:05;4.60;;;3.23;;
2123;SDS011;1068;52.460;13.528;2023-06-14T08:56:33;4.50;;;4.10;;
2123;SDS011;1068;52.460;13.528;2023-06-14T08:59:00;5.73;;;3.70;;
2123;SDS011;1068;52.460;13.528;2023-06-14T09:01:27;3.53;;;3.33;;
2123;SDS011;1068;52.460;13.528;2023-06-14T09:03:56;5.07;;;3.60;;
2123;SDS011;1068;52.460;13.528;2023-06-14T09:06:25;4.67;;;3.20;;
2123;SDS011;1068;52.460;13.528;2023-06-14T09:08:53;4.37;;;3.43;;
2123;SDS011;1068;52.460;13.528;2023-06-14T09:11:21;5.87;;;3.13;;
2123;SDS011;1068;52.460;13.528;2023-06-14T09:13:48;8.60;;;2.83;;
2123;SDS011;1068;52.460;13.528;2023-06-14T09:16:15;3.27;;;2.97;;
2123;SDS011;1068;52.460;13.528;2023-06-14T09:18:43;6.00;;;2.80;;
2123;SDS011;1068;52.460;13.528;2023-06-14T09:21:12;3.00;;;2.80;;
2123;SDS011;1068;52.460;13.528;2023-06-14T09:23:41;3.70;;;3.40;;
2123;SDS011;1068;52.460;13.528;2023-06-14T09:26:09;2.97;;;2.80;;
2123;SDS011;1068;52.460;13.528;2023-06-14T09:28:37;4.47;;;2.97;;
2123;SDS011;1068;52.460;13.528;2023-06-14T09:31:07;3.80;;;2.97;;
2123;SDS011;1068;52.460;13.528;2023-06-14T09:33:35;3.03;;;2.70;;
2123;SDS011;1068;52.460;13.528;2023-06-14T09:36:02;3.27;;;2.97;;
2123;SDS011;1068;52.460;13.528;2023-06-14T09:38:30;3.40;;;3.20;;
2123;SDS011;1068;52.460;13.528;2023-06-14T09:40:58;3.33;;;3.10;;
2123;SDS011;1068;52.460;13.528;2023-06-14T09:43:25;3.80;;;2.90;;
2123;SDS011;1068;52.460;13.528;2023-06-14T09:45:53;3.20;;;2.90;;
2123;SDS011;1068;52.460;13.528;2023-06-14T09:48:20;5.60;;;3.20;;
2123;SDS011;1068;52.460;13.528;2023-06-14T09:50:48;4.30;;;3.23;;
2123;SDS011;1068;52.460;13.528;2023-06-14T09:53:17;3.27;;;2.53;;
2123;SDS011;1068;52.460;13.528;2023-06-14T09:55:48;4.30;;;3.03;;
2123;SDS011;1068;52.460;13.528;2023-06-14T09:58:18;3.70;;;2.70;;
2123;SDS011;1068;52.460;13.528;2023-06-14T10:00:46;5.00;;;2.80;;
2123;SDS011;1068;52.460;13.528;2023-06-14T10:03:16;3.43;;;3.13;;
2123;SDS011;1068;52.460;13.528;2023-06-14T10:05:45;3.30;;;2.37;;
2123;SDS011;1068;52.460;13.528;2023-06-14T10:08:14;3.80;;;2.80;;
2123;SDS011;1068;52.460;13.528;2023-06-14T10:10:42;4.17;;;2.90;;
2123;SDS011;1068;52.460;13.528;2023-06-14T10:13:09;3.60;;;2.70;;
2123;SDS011;1068;52.460;13.528;2023-06-14T10:15:41;4.43;;;2.80;;
2123;SDS011;1068;52.460;13.528;2023-06-14T10:18:11;5.33;;;3.47;;
2123;SDS011;1068;52.460;13.528;2023-06-14T10:20:48;7.90;;;2.67;;
2123;SDS011;1068;52.460;13.528;2023-06-14T10:23:18;4.50;;;2.97;;
2123;SDS011;1068;52.460;13.528;2023-06-14T10:25:49;4.80;;;2.60;;
2123;SDS011;1068;52.460;13.528;2023-06-14T10:28:16;3.73;;;2.70;;
2123;SDS011;1068;52.460;13.528;2023-06-14T10:31:04;3.73;;;3.43;;
2123;SDS011;1068;52.460;13.528;2023-06-14T10:33:31;2.97;;;2.77;;
2123;SDS011;1068;52.460;13.528;2023-06-14T10:36:08;3.03;;;2.73;;
2123;SDS011;1068;52.460;13.528;2023-06-14T10:38:36;3.33;;;2.67;;
2123;SDS011;1068;52.460;13.528;2023-06-14T10:41:03;5.40;;;2.90;;
2123;SDS011;1068;52.460;13.528;2023-06-14T10:43:30;3.93;;;3.13;;
2123;SDS011;1068;52.460;13.528;2023-06-14T10:46:17;7.27;;;3.30;;
2123;SDS011;1068;52.460;13.528;2023-06-14T10:48:48;3.13;;;2.93;;
2123;SDS011;1068;52.460;13.528;2023-06-14T10:51:15;4.50;;;3.30;;
2123;SDS011;1068;52.460;13.528;2023-06-14T10:53:45;4.07;;;2.87;;
2123;SDS011;1068;52.460;13.528;2023-06-14T10:56:22;4.50;;;2.83;;
2123;SDS011;1068;52.460;13.528;2023-06-14T10:58:51;3.63;;;2.93;;
2123;SDS011;1068;52.460;13.528;2023-06-14T11:01:20;6.00;;;3.67;;
2123;SDS011;1068;52.460;13.528;2023-06-14T11:03:50;3.07;;;2.87;;
2123;SDS011;1068;52.460;13.528;2023-06-14T11:06:20;6.33;;;3.03;;
2123;SDS011;1068;52.460;13.528;2023-06-14T11:11:37;4.10;;;3.27;;
2123;SDS011;1068;52.460;13.528;2023-06-14T11:14:04;4.53;;;2.80;;
2123;SDS011;1068;52.460;13.528;2023-06-14T11:16:33;5.90;;;3.07;;
2123;SDS011;1068;52.460;13.528;2023-06-14T11:19:00;3.13;;;2.80;;
2123;SDS011;1068;52.460;13.528;2023-06-14T11:21:29;4.30;;;3.57;;
2123;SDS011;1068;52.460;13.528;2023-06-14T11:23:56;4.90;;;3.20;;
2123;SDS011;1068;52.460;13.528;2023-06-14T11:26:27;3.40;;;3.10;;
2123;SDS011;1068;52.460;13.528;2023-06-14T11:28:55;5.83;;;3.73;;
2123;SDS011;1068;52.460;13.528;2023-06-14T11:31:22;3.40;;;3.10;;
2123;SDS011;1068;52.460;13.528;2023-06-14T11:33:50;3.47;;;3.20;;
2123;SDS011;1068;52.460;13.528;2023-06-14T11:36:17;4.90;;;3.27;;
2123;SDS011;1068;52.460;13.528;2023-06-14T11:38:44;2.90;;;2.70;;
2123;SDS011;1068;52.460;13.528;2023-06-14T11:41:11;6.90;;;3.13;;
2123;SDS011;1068;52.460;13.528;2023-06-14T11:43:39;4.80;;;3.83;;
2123;SDS011;1068;52.460;13.528;2023-06-14T11:46:11;3.33;;;3.13;;
2123;SDS011;1068;52.460;13.528;2023-06-14T11:48:40;6.80;;;3.20;;
2123;SDS011;1068;52.460;13.528;2023-06-14T11:51:09;3.20;;;3.00;;
2123;SDS011;1068;52.460;13.528;2023-06-14T11:53:36;4.13;;;3.10;;
2123;SDS011;1068;52.460;13.528;2023-06-14T11:56:03;3.40;;;3.10;;
2123;SDS011;1068;52.460;13.528;2023-06-14T11:58:30;3.43;;;2.70;;
2123;SDS011;1068;52.460;13.528;2023-06-14T12:00:57;5.60;;;3.27;;
2123;SDS011;1068;52.460;13.528;2023-06-14T12:03:24;3.13;;;2.93;;
2123;SDS011;1068;52.460;13.528;2023-06-14T12:06:01;4.63;;;3.03;;
2123;SDS011;1068;52.460;13.528;2023-06-14T12:08:33;3.07;;;2.77;;
2123;SDS011;1068;52.460;13.528;2023-06-14T12:11:05;6.03;;;2.90;;
2123;SDS011;1068;52.460;13.528;2023-06-14T12:13:33;3.60;;;3.23;;
2123;SDS011;1068;52.460;13.528;2023-06-14T12:16:00;3.63;;;3.30;;
2123;SDS011;1068;52.460;13.528;2023-06-14T12:18:32;3.33;;;3.03;;
2123;SDS011;1068;52.460;13.528;2023-06-14T12:21:00;4.33;;;3.73;;
2123;SDS011;1068;52.460;13.528;2023-06-14T12:23:39;6.30;;;3.57;;
2123;SDS011;1068;52.460;13.528;2023-06-14T12:26:06;12.27;;;3.27;;
2123;SDS011;1068;52.460;13.528;2023-06-14T12:28:33;4.20;;;3.08;;
2123;SDS011;1068;52.460;13.528;2023-06-14T12:31:00;3.20;;;2.93;;
2123;SDS011;1068;52.460;13.528;2023-06-14T12:33:27;3.70;;;3.40;;
2123;SDS011;1068;52.460;13.528;2023-06-14T12:35:55;4.40;;;3.13;;
2123;SDS011;1068;52.460;13.528;2023-06-14T12:38:23;5.40;;;2.80;;
2123;SDS011;1068;52.460;13.528;2023-06-14T12:40:51;3.40;;;3.10;;
2123;SDS011;1068;52.460;13.528;2023-06-14T12:43:18;6.50;;;3.07;;
2123;SDS011;1068;52.460;13.528;2023-06-14T12:45:45;5.37;;;3.17;;
2123;SDS011;1068;52.460;13.528;2023-06-14T12:48:12;3.20;;;3.00;;
2123;SDS011;1068;52.460;13.528;2023-06-14T12:50:40;5.27;;;3.47;;
2123;SDS011;1068;52.460;13.528;2023-06-14T12:53:07;5.63;;;2.73;;
2123;SDS011;1068;52.460;13.528;2023-06-14T12:55:34;5.73;;;3.20;;
2123;SDS011;1068;52.460;13.528;2023-06-14T12:58:02;6.83;;;3.07;;
2123;SDS011;1068;52.460;13.528;2023-06-14T13:00:29;9.17;;;3.10;;
2123;SDS011;1068;52.460;13.528;2023-06-14T13:02:56;3.77;;;3.47;;
2123;SDS011;1068;52.460;13.528;2023-06-14T13:05:23;7.73;;;3.20;;
2123;SDS011;1068;52.460;13.528;2023-06-14T13:07:50;6.00;;;2.93;;
2123;SDS011;1068;52.460;13.528;2023-06-14T13:10:17;2.77;;;2.40;;
2123;SDS011;1068;52.460;13.528;2023-06-14T13:12:44;7.27;;;2.87;;
2123;SDS011;1068;52.460;13.528;2023-06-14T13:15:12;6.20;;;2.90;;
2123;SDS011;1068;52.460;13.528;2023-06-14T13:17:39;7.63;;;3.37;;
2123;SDS011;1068;52.460;13.528;2023-06-14T13:20:08;7.80;;;2.90;;
2123;SDS011;1068;52.460;13.528;2023-06-14T13:22:36;4.53;;;2.53;;
2123;SDS011;1068;52.460;13.528;2023-06-14T13:25:04;3.40;;;3.10;;
2123;SDS011;1068;52.460;13.528;2023-06-14T13:27:31;5.10;;;3.00;;
2123;SDS011;1068;52.460;13.528;2023-06-14T13:29:58;2.93;;;2.73;;
2123;SDS011;1068;52.460;13.528;2023-06-14T13:32:27;4.00;;;2.83;;
2123;SDS011;1068;52.460;13.528;2023-06-14T13:34:54;2.93;;;2.63;;
2123;SDS011;1068;52.460;13.528;2023-06-14T13:37:21;2.97;;;2.67;;
2123;SDS011;1068;52.460;13.528;2023-06-14T13:39:48;2.90;;;2.70;;
2123;SDS011;1068;52.460;13.528;2023-06-14T13:42:15;5.07;;;3.20;;
2123;SDS011;1068;52.460;13.528;2023-06-14T13:44:42;9.83;;;3.33;;
2123;SDS011;1068;52.460;13.528;2023-06-14T13:47:09;3.93;;;3.33;;
2123;SDS011;1068;52.460;13.528;2023-06-14T13:49:37;4.80;;;2.97;;
2123;SDS011;1068;52.460;13.528;2023-06-14T13:52:04;4.07;;;3.10;;
2123;SDS011;1068;52.460;13.528;2023-06-14T13:54:31;7.13;;;3.17;;
2123;SDS011;1068;52.460;13.528;2023-06-14T13:56:58;4.60;;;3.37;;
2123;SDS011;1068;52.460;13.528;2023-06-14T13:59:25;5.33;;;3.67;;
2123;SDS011;1068;52.460;13.528;2023-06-14T14:01:53;4.23;;;3.23;;
2123;SDS011;1068;52.460;13.528;2023-06-14T14:04:20;6.93;;;3.60;;
2123;SDS011;1068;52.460;13.528;2023-06-14T14:06:48;4.83;;;2.90;;
2123;SDS011;1068;52.460;13.528;2023-06-14T14:09:15;3.40;;;2.80;;
2123;SDS011;1068;52.460;13.528;2023-06-14T14:11:42;10.03;;;3.20;;
2123;SDS011;1068;52.460;13.528;2023-06-14T14:14:09;4.70;;;3.73;;
2123;SDS011;1068;52.460;13.528;2023-06-14T14:16:36;4.30;;;2.77;;
2123;SDS011;1068;52.460;13.528;2023-06-14T14:19:03;3.20;;;2.60;;
2123;SDS011;1068;52.460;13.528;2023-06-14T14:21:30;7.37;;;3.40;;
2123;SDS011;1068;52.460;13.528;2023-06-14T14:23:58;4.40;;;3.10;;
2123;SDS011;1068;52.460;13.528;2023-06-14T14:26:25;5.43;;;3.50;;
2123;SDS011;1068;52.460;13.528;2023-06-14T14:28:52;3.60;;;3.03;;
2123;SDS011;1068;52.460;13.528;2023-06-14T14:31:19;4.93;;;3.60;;
2123;SDS011;1068;52.460;13.528;2023-06-14T14:33:46;5.03;;;3.37;;
2123;SDS011;1068;52.460;13.528;2023-06-14T14:36:14;4.10;;;2.80;;
2123;SDS011;1068;52.460;13.528;2023-06-14T14:38:41;6.83;;;3.03;;
2123;SDS011;1068;52.460;13.528;2023-06-14T14:41:09;4.47;;;2.97;;
2123;SDS011;1068;52.460;13.528;2023-06-14T14:43:36;3.30;;;3.10;;
2123;SDS011;1068;52.460;13.528;2023-06-14T14:46:03;5.00;;;2.80;;
2123;SDS011;1068;52.460;13.528;2023-06-14T14:48:30;7.40;;;3.00;;
2123;SDS011;1068;52.460;13.528;2023-06-14T14:50:57;7.33;;;3.00;;
2123;SDS011;1068;52.460;13.528;2023-06-14T14:53:24;3.70;;;2.83;;
2123;SDS011;1068;52.460;13.528;2023-06-14T14:55:50;10.63;;;3.17;;
2123;SDS011;1068;52.460;13.528;2023-06-14T14:58:19;3.50;;;3.20;;
2123;SDS011;1068;52.460;13.528;2023-06-14T15:00:46;4.50;;;3.37;;
2123;SDS011;1068;52.460;13.528;2023-06-14T15:03:13;10.90;;;3.03;;
2123;SDS011;1068;52.460;13.528;2023-06-14T15:05:40;5.77;;;3.40;;
2123;SDS011;1068;52.460;13.528;2023-06-14T15:08:07;6.03;;;2.57;;